createdAt,value
2022-08-11T00:00:16.693Z,18.70
2022-08-11T00:02:29.417Z,18.80
2022-08-11T00:04:37.189Z,18.80
2022-08-11T00:09:00.677Z,18.80
2022-08-11T00:11:07.913Z,18.80
2022-08-11T00:13:11.513Z,18.80
2022-08-11T00:15:17.924Z,18.80
2022-08-11T00:17:25.083Z,18.80
2022-08-11T00:20:11.884Z,18.90
2022-08-11T00:22:04.739Z,18.80
2022-08-11T00:23:54.393Z,18.80
2022-08-11T00:25:58.787Z,18.70
2022-08-11T00:30:18.531Z,18.60
2022-08-11T00:32:22.949Z,18.60
2022-08-11T00:34:30.176Z,18.60
2022-08-11T00:36:42.292Z,18.60
2022-08-11T00:41:06.994Z,18.60
2022-08-11T00:43:20.212Z,18.60
2022-08-11T00:45:27.087Z,18.70
2022-08-11T00:47:44.094Z,18.70
2022-08-11T00:49:55.196Z,18.60
2022-08-11T00:54:55.139Z,18.50
2022-08-11T00:57:37.747Z,18.60
2022-08-11T00:59:57.939Z,18.60
2022-08-11T01:02:13.317Z,18.60
2022-08-11T01:04:55.895Z,18.50
2022-08-11T01:09:34.568Z,18.40
2022-08-11T01:12:13.688Z,18.30
2022-08-11T01:14:37.811Z,18.20
2022-08-11T01:17:18.296Z,18.10
2022-08-11T01:20:47.328Z,18.00
2022-08-11T01:22:52.105Z,17.90
2022-08-11T01:27:39.106Z,17.80
2022-08-11T01:30:22.685Z,17.70
2022-08-11T01:33:11.648Z,17.70
2022-08-11T01:35:53.508Z,17.70
2022-08-11T01:38:29.984Z,17.70
2022-08-11T01:44:38.242Z,17.60
2022-08-11T01:50:06.694Z,17.50
2022-08-11T01:51:22.540Z,17.40
2022-08-11T01:53:35.658Z,17.40
2022-08-11T01:55:43.668Z,17.40
2022-08-11T01:57:51.170Z,17.40
2022-08-11T01:59:58.960Z,17.40
2022-08-11T02:02:21.378Z,17.30
2022-08-11T02:04:25.640Z,17.20
2022-08-11T02:06:52.852Z,17.10
2022-08-11T02:11:30.905Z,16.80
2022-08-11T02:15:58.908Z,16.60
2022-08-11T02:18:09.132Z,16.60
2022-08-11T02:20:35.204Z,16.50
2022-08-11T02:23:02.796Z,16.40
2022-08-11T02:25:09.582Z,16.30
2022-08-11T02:27:19.919Z,16.30
2022-08-11T02:32:24.052Z,16.30
2022-08-11T02:34:18.157Z,16.30
2022-08-11T02:36:24.963Z,16.40
2022-08-11T02:40:51.606Z,16.40
2022-08-11T02:43:03.919Z,16.40
2022-08-11T02:45:20.575Z,16.30
2022-08-11T02:47:32.020Z,16.30
2022-08-11T02:50:02.671Z,16.30
2022-08-11T02:52:07.844Z,16.30
2022-08-11T02:54:16.237Z,16.30
2022-08-11T02:56:25.495Z,16.30
2022-08-11T02:58:35.920Z,16.30
2022-08-11T03:00:48.436Z,16.20
2022-08-11T03:05:34.215Z,16.10
2022-08-11T03:09:46.435Z,15.90
2022-08-11T03:12:16.564Z,15.90
2022-08-11T03:14:52.767Z,15.80
2022-08-11T03:19:16.527Z,15.70
2022-08-11T03:21:23.833Z,15.60
2022-08-11T03:25:51.815Z,15.70
2022-08-11T03:28:02.781Z,15.80
2022-08-11T03:32:31.184Z,15.90
2022-08-11T03:34:37.529Z,15.90
2022-08-11T03:37:43.756Z,16.00
2022-08-11T03:39:56.385Z,16.00
2022-08-11T03:42:07.654Z,16.00
2022-08-11T03:44:13.656Z,16.10
2022-08-11T03:46:22.247Z,16.10
2022-08-11T03:51:00.529Z,16.30
2022-08-11T03:53:11.872Z,16.40
2022-08-11T03:55:22.292Z,16.40
2022-08-11T03:58:04.695Z,16.40
2022-08-11T04:01:05.369Z,16.40
2022-08-11T04:06:17.843Z,16.40
2022-08-11T04:09:06.635Z,16.40
2022-08-11T04:11:36.427Z,16.40
2022-08-11T04:16:46.969Z,16.40
2022-08-11T04:22:25.684Z,16.20
2022-08-11T04:25:10.216Z,16.10
2022-08-11T04:27:56.092Z,16.10
2022-08-11T04:30:09.223Z,16.10
2022-08-11T04:37:37.034Z,16.20
2022-08-11T04:43:04.627Z,16.30
2022-08-11T04:45:28.886Z,16.30
2022-08-11T04:50:34.977Z,16.40
2022-08-11T04:56:21.955Z,16.40
2022-08-11T05:01:06.491Z,16.50
2022-08-11T05:09:05.889Z,16.60
2022-08-11T05:11:32.569Z,16.70
2022-08-11T05:13:57.646Z,16.70
2022-08-11T05:16:22.888Z,16.70
2022-08-11T05:18:46.775Z,16.70
2022-08-11T05:21:11.788Z,16.70
2022-08-11T05:23:35.034Z,16.70
2022-08-11T05:26:44.140Z,16.80
2022-08-11T05:28:26.868Z,16.80
2022-08-11T05:30:50.189Z,16.80
2022-08-11T05:35:59.732Z,16.90
2022-08-11T05:40:03.354Z,16.90
2022-08-11T05:42:30.191Z,17.00
2022-08-11T05:44:50.637Z,17.00
2022-08-11T05:47:12.803Z,17.00
2022-08-11T05:49:34.999Z,17.10
2022-08-11T05:54:28.833Z,17.20
2022-08-11T05:56:24.128Z,17.30
2022-08-11T06:00:48.479Z,17.40
2022-08-11T06:02:54.728Z,17.50
2022-08-11T06:07:17.347Z,17.50
2022-08-11T06:09:30.944Z,17.50
2022-08-11T06:11:43.633Z,17.60
2022-08-11T06:13:47.338Z,17.70
2022-08-11T06:15:55.151Z,17.70
2022-08-11T06:18:02.191Z,17.80
2022-08-11T06:20:11.223Z,17.90
2022-08-11T06:24:34.628Z,18.10
2022-08-11T06:26:55.183Z,18.20
2022-08-11T06:28:47.164Z,18.30
2022-08-11T06:30:51.479Z,18.30
2022-08-11T06:35:17.944Z,18.50
2022-08-11T06:39:41.648Z,18.70
2022-08-11T06:41:49.266Z,18.70
2022-08-11T06:46:14.299Z,18.90
2022-08-11T06:48:23.017Z,19.10
2022-08-11T06:50:45.188Z,19.30
2022-08-11T06:52:49.324Z,19.40
2022-08-11T06:54:56.319Z,19.60
2022-08-11T06:57:30.223Z,19.70
2022-08-11T07:01:48.548Z,20.10
2022-08-11T07:06:51.226Z,20.30
2022-08-11T07:09:54.176Z,20.40
2022-08-11T07:12:52.344Z,20.40
2022-08-11T07:16:11.464Z,20.50
2022-08-11T07:20:14.233Z,20.80
2022-08-11T07:22:38.665Z,20.80
2022-08-11T07:25:04.360Z,20.80
2022-08-11T07:27:34.977Z,20.80
2022-08-11T07:29:36.339Z,21.10
2022-08-11T07:34:06.343Z,21.30
2022-08-11T07:36:12.087Z,21.40
2022-08-11T07:40:35.952Z,21.40
2022-08-11T07:45:17.410Z,21.60
2022-08-11T07:49:56.069Z,21.80
2022-08-11T07:52:17.772Z,21.80
2022-08-11T07:54:21.774Z,21.90
2022-08-11T07:56:35.635Z,22.10
2022-08-11T07:58:53.164Z,22.20
2022-08-11T08:01:21.306Z,22.30
2022-08-11T08:03:39.054Z,22.40
2022-08-11T08:06:03.635Z,22.50
2022-08-11T08:08:26.319Z,22.60
2022-08-11T08:10:49.960Z,22.80
2022-08-11T08:13:11.804Z,23.00
2022-08-11T08:15:35.014Z,23.10
2022-08-11T08:18:09.376Z,23.30
2022-08-11T08:19:55.989Z,23.50
2022-08-11T08:22:37.288Z,23.70
2022-08-11T08:24:07.876Z,23.90
2022-08-11T08:26:33.569Z,24.10
2022-08-11T08:28:37.320Z,24.40
2022-08-11T08:30:49.261Z,24.70
2022-08-11T08:32:55.268Z,24.80
2022-08-11T08:34:59.467Z,25.10
2022-08-11T08:37:15.945Z,25.30
2022-08-11T08:39:12.343Z,25.50
2022-08-11T08:41:19.897Z,25.50
2022-08-11T08:43:25.036Z,25.80
2022-08-11T08:45:29.218Z,25.80
2022-08-11T08:49:56.052Z,26.10
2022-08-11T08:54:21.352Z,26.40
2022-08-11T08:56:28.133Z,26.50
2022-08-11T08:58:33.414Z,26.80
2022-08-11T09:00:42.244Z,27.00
2022-08-11T09:02:46.426Z,27.30
2022-08-11T09:04:51.097Z,27.40
2022-08-11T09:06:56.108Z,27.50
2022-08-11T09:08:59.932Z,27.80
2022-08-11T09:11:22.786Z,28.00
2022-08-11T09:13:27.700Z,28.00
2022-08-11T09:15:31.808Z,28.10
2022-08-11T09:17:38.409Z,28.20
2022-08-11T09:19:44.387Z,28.20
2022-08-11T09:22:13.607Z,28.40
2022-08-11T09:24:36.219Z,28.60
2022-08-11T09:26:59.113Z,29.10
2022-08-11T09:29:04.229Z,29.30
2022-08-11T09:31:09.985Z,29.40
2022-08-11T09:35:33.869Z,29.20
2022-08-11T09:42:16.658Z,29.60
2022-08-11T09:44:36.781Z,29.80
2022-08-11T09:46:41.853Z,29.80
2022-08-11T09:48:46.472Z,29.80
2022-08-11T09:50:53.050Z,30.00
2022-08-11T09:55:15.078Z,29.80
2022-08-11T09:57:38.956Z,29.70
2022-08-11T09:59:42.543Z,29.80
2022-08-11T10:01:48.621Z,29.90
2022-08-11T10:03:53.075Z,30.00
2022-08-11T10:06:18.580Z,30.00
2022-08-11T10:08:25.562Z,30.10
2022-08-11T10:10:31.948Z,30.10
2022-08-11T10:12:38.861Z,29.80
2022-08-11T10:15:03.463Z,29.80
2022-08-11T10:17:10.159Z,29.70
2022-08-11T10:19:14.875Z,29.60
2022-08-11T10:21:33.605Z,29.90
2022-08-11T10:24:01.165Z,30.10
2022-08-11T10:28:33.628Z,30.20
2022-08-11T10:30:43.212Z,30.50
2022-08-11T10:35:03.595Z,30.80
2022-08-11T10:37:09.120Z,30.70
2022-08-11T10:39:18.156Z,30.90
2022-08-11T10:42:02.770Z,30.90
2022-08-11T10:44:02.375Z,31.00
2022-08-11T10:46:12.031Z,31.10
2022-08-11T10:48:21.720Z,31.10
2022-08-11T10:50:48.226Z,31.00
2022-08-11T10:53:13.908Z,31.20
2022-08-11T10:55:36.184Z,31.00
2022-08-11T10:58:04.749Z,30.40
2022-08-11T11:00:05.570Z,30.80
2022-08-11T11:02:13.372Z,30.80
2022-08-11T11:04:18.344Z,30.50
2022-08-11T11:11:09.737Z,31.10
2022-08-11T11:13:33.646Z,31.20
2022-08-11T11:15:57.819Z,31.40
2022-08-11T11:18:06.845Z,31.20
2022-08-11T11:20:34.609Z,31.10
2022-08-11T11:22:38.716Z,31.20
2022-08-11T11:27:05.511Z,31.30
2022-08-11T11:31:48.628Z,31.90
2022-08-11T11:36:14.491Z,31.90
2022-08-11T11:38:18.941Z,31.90
2022-08-11T11:42:44.064Z,31.60
2022-08-11T11:44:48.311Z,31.70
2022-08-11T11:49:16.638Z,31.10
2022-08-11T11:51:14.810Z,31.20
2022-08-11T11:53:18.973Z,31.40
2022-08-11T11:55:24.990Z,31.20
2022-08-11T11:57:58.961Z,31.40
2022-08-11T12:00:12.035Z,31.70
2022-08-11T12:02:16.767Z,31.90
2022-08-11T12:06:38.673Z,32.00
2022-08-11T12:08:43.838Z,32.00
2022-08-11T12:10:50.367Z,31.90
2022-08-11T12:13:12.271Z,31.90
2022-08-11T12:15:18.055Z,31.60
2022-08-11T12:17:24.233Z,31.40
2022-08-11T12:19:28.832Z,31.40
2022-08-11T12:21:36.781Z,31.50
2022-08-11T12:24:02.316Z,31.70
2022-08-11T12:26:27.287Z,31.70
2022-08-11T12:28:29.143Z,31.20
2022-08-11T12:30:32.900Z,31.20
2022-08-11T12:32:39.005Z,31.10
2022-08-11T12:34:42.702Z,30.90
2022-08-11T12:36:50.515Z,30.90
2022-08-11T12:38:55.304Z,31.30
2022-08-11T12:41:25.151Z,31.20
2022-08-11T12:43:57.022Z,31.00
2022-08-11T12:45:58.579Z,30.90
2022-08-11T12:48:59.827Z,31.00
2022-08-11T12:50:50.737Z,31.30
2022-08-11T12:52:56.437Z,31.40
2022-08-11T12:55:02.779Z,31.60
2022-08-11T12:57:36.549Z,31.60
2022-08-11T12:59:52.391Z,31.60
2022-08-11T13:02:14.005Z,31.70
2022-08-11T13:04:35.832Z,31.20
2022-08-11T13:06:40.035Z,31.60
2022-08-11T13:08:45.195Z,31.90
2022-08-11T13:11:09.320Z,32.00
2022-08-11T13:13:54.868Z,31.90
2022-08-11T13:17:42.366Z,31.00
2022-08-11T13:22:00.709Z,31.30
2022-08-11T13:24:05.536Z,31.40
2022-08-11T13:26:10.241Z,31.60
2022-08-11T13:28:14.354Z,31.70
2022-08-11T13:30:40.312Z,31.80
2022-08-11T13:32:45.249Z,31.50
2022-08-11T13:34:49.452Z,31.20
2022-08-11T13:36:55.896Z,31.20
2022-08-11T13:39:00.008Z,31.60
2022-08-11T13:41:07.410Z,31.80
2022-08-11T13:43:12.975Z,31.80
2022-08-11T13:45:17.605Z,32.00
2022-08-11T13:47:23.110Z,32.20
2022-08-11T13:51:44.690Z,32.50
2022-08-11T13:53:48.745Z,32.20
2022-08-11T13:55:53.059Z,32.40
2022-08-11T13:58:07.243Z,32.50
2022-08-11T14:00:13.345Z,32.50
2022-08-11T14:02:28.425Z,32.40
2022-08-11T14:04:41.888Z,32.30
2022-08-11T14:09:05.611Z,32.40
2022-08-11T14:12:22.844Z,32.00
2022-08-11T14:13:42.647Z,32.10
2022-08-11T14:15:47.649Z,32.20
2022-08-11T14:17:56.377Z,32.40
2022-08-11T14:20:38.110Z,32.40
2022-08-11T14:22:11.794Z,32.30
2022-08-11T14:24:18.294Z,32.40
2022-08-11T14:26:23.426Z,32.60
2022-08-11T14:28:31.714Z,32.70
2022-08-11T14:30:51.719Z,32.60
2022-08-11T14:32:56.300Z,32.70
2022-08-11T14:35:02.974Z,32.20
2022-08-11T14:37:10.883Z,31.50
2022-08-11T14:39:18.484Z,31.30
2022-08-11T14:42:11.229Z,31.20
2022-08-11T14:44:24.076Z,31.40
2022-08-11T14:48:42.508Z,32.20
2022-08-11T14:50:47.777Z,32.20
2022-08-11T14:52:55.483Z,32.50
2022-08-11T14:55:18.555Z,32.40
2022-08-11T14:59:38.595Z,31.80
2022-08-11T15:02:18.138Z,32.00
2022-08-11T15:06:37.012Z,32.30
2022-08-11T15:08:57.278Z,32.10
2022-08-11T15:11:03.141Z,31.90
2022-08-11T15:13:06.984Z,32.10
2022-08-11T15:17:35.344Z,32.10
2022-08-11T15:19:40.403Z,32.20
2022-08-11T15:21:58.107Z,32.10
2022-08-11T15:24:21.495Z,32.30
2022-08-11T15:26:50.239Z,32.50
2022-08-11T15:29:11.958Z,32.60
2022-08-11T15:33:53.634Z,32.20
2022-08-11T15:36:15.839Z,32.30
2022-08-11T15:38:22.012Z,32.50
2022-08-11T15:43:05.505Z,31.90
2022-08-11T15:47:30.879Z,32.20
2022-08-11T15:52:00.326Z,32.10
2022-08-11T15:54:09.423Z,32.20
2022-08-11T15:56:13.311Z,32.40
2022-08-11T15:58:36.933Z,32.50
2022-08-11T16:01:04.222Z,32.70
2022-08-11T16:04:06.574Z,32.70
2022-08-11T16:07:51.701Z,32.50
2022-08-11T16:10:00.535Z,32.40
2022-08-11T16:12:08.736Z,31.70
2022-08-11T16:14:32.428Z,31.90
2022-08-11T16:16:38.560Z,31.70
2022-08-11T16:18:46.621Z,31.70
2022-08-11T16:20:55.198Z,31.70
2022-08-11T16:23:02.841Z,31.70
2022-08-11T16:27:03.579Z,31.50
2022-08-11T16:27:22.414Z,30.90
2022-08-11T16:29:25.125Z,30.90
2022-08-11T16:31:29.810Z,31.10
2022-08-11T16:33:49.205Z,31.10
2022-08-11T16:35:58.901Z,30.80
2022-08-11T16:38:22.366Z,30.80
2022-08-11T16:40:26.610Z,31.00
2022-08-11T16:43:00.028Z,31.30
2022-08-11T16:45:13.564Z,31.20
2022-08-11T16:47:53.857Z,31.30
2022-08-11T16:49:32.829Z,31.40
2022-08-11T16:51:35.084Z,31.30
2022-08-11T16:53:54.737Z,31.60
2022-08-11T16:55:52.649Z,31.70
2022-08-11T16:58:11.852Z,31.80
2022-08-11T17:00:17.748Z,31.90
2022-08-11T17:05:19.700Z,32.10
2022-08-11T17:09:56.555Z,31.80
2022-08-11T17:12:19.405Z,31.50
2022-08-11T17:14:35.563Z,31.30
2022-08-11T17:18:54.173Z,31.30
2022-08-11T17:20:58.372Z,30.90
2022-08-11T17:23:22.611Z,31.00
2022-08-11T17:27:44.919Z,31.20
2022-08-11T17:29:54.970Z,31.20
2022-08-11T17:32:17.578Z,31.40
2022-08-11T17:34:38.978Z,31.50
2022-08-11T17:36:45.761Z,31.60
2022-08-11T17:38:51.185Z,31.70
2022-08-11T17:41:18.667Z,31.70
2022-08-11T17:43:38.801Z,31.80
2022-08-11T17:46:01.538Z,31.70
2022-08-11T17:48:23.854Z,31.50
2022-08-11T17:53:04.503Z,31.20
2022-08-11T17:55:52.731Z,31.30
2022-08-11T17:57:50.697Z,31.20
2022-08-11T17:59:56.912Z,31.10
2022-08-11T18:02:34.403Z,30.90
2022-08-11T18:04:29.572Z,30.70
2022-08-11T18:06:35.930Z,30.80
2022-08-11T18:09:01.317Z,30.60
2022-08-11T18:12:00.088Z,30.60
2022-08-11T18:13:51.131Z,30.60
2022-08-11T18:16:12.590Z,30.50
2022-08-11T18:18:33.925Z,30.50
2022-08-11T18:20:55.617Z,30.50
2022-08-11T18:23:19.261Z,30.40
2022-08-11T18:25:45.502Z,30.30
2022-08-11T18:28:10.173Z,30.10
2022-08-11T18:30:32.493Z,30.00
2022-08-11T18:33:25.013Z,29.90
2022-08-11T18:35:22.529Z,29.80
2022-08-11T18:37:47.923Z,29.60
2022-08-11T18:40:13.744Z,29.50
2022-08-11T18:42:37.894Z,29.30
2022-08-11T18:45:00.567Z,29.10
2022-08-11T18:47:26.074Z,28.80
2022-08-11T18:52:10.567Z,28.20
2022-08-11T18:54:34.465Z,28.10
2022-08-11T18:56:56.996Z,28.10
2022-08-11T19:01:36.758Z,27.80
2022-08-11T19:04:03.734Z,27.70
2022-08-11T19:06:38.395Z,27.60
2022-08-11T19:08:54.704Z,27.40
2022-08-11T19:11:16.493Z,27.20
2022-08-11T19:13:43.577Z,27.00
2022-08-11T19:16:05.475Z,26.90
2022-08-11T19:18:31.301Z,26.70
2022-08-11T19:20:54.599Z,26.60
2022-08-11T19:23:17.465Z,26.40
2022-08-11T19:25:40.615Z,26.30
2022-08-11T19:28:04.118Z,26.20
2022-08-11T19:30:26.946Z,26.10
2022-08-11T19:32:49.858Z,26.00
2022-08-11T19:35:12.223Z,25.90
2022-08-11T19:37:34.621Z,25.70
2022-08-11T19:39:58.867Z,25.50
2022-08-11T19:42:23.029Z,25.30
2022-08-11T19:44:45.260Z,25.20
2022-08-11T19:47:08.687Z,25.00
2022-08-11T19:51:50.723Z,25.10
2022-08-11T19:54:11.886Z,25.10
2022-08-11T19:56:35.131Z,25.00
2022-08-11T19:58:56.937Z,25.10
2022-08-11T20:01:18.679Z,25.10
2022-08-11T20:03:40.616Z,25.20
2022-08-11T20:06:03.559Z,25.20
2022-08-11T20:08:25.831Z,25.10
2022-08-11T20:10:50.096Z,25.10
2022-08-11T20:13:13.864Z,25.10
2022-08-11T20:15:38.718Z,25.00
2022-08-11T20:18:01.280Z,25.00
2022-08-11T20:20:25.193Z,25.00
2022-08-11T20:22:48.936Z,25.00
2022-08-11T20:25:12.204Z,24.80
2022-08-11T20:27:34.929Z,24.80
2022-08-11T20:29:57.019Z,24.80
2022-08-11T20:32:19.425Z,24.80
2022-08-11T20:34:41.153Z,24.70
2022-08-11T20:37:03.932Z,24.70
2022-08-11T20:39:26.301Z,24.70
2022-08-11T20:41:49.162Z,24.60
2022-08-11T20:44:13.252Z,24.60
2022-08-11T20:46:36.561Z,24.60
2022-08-11T20:48:59.371Z,24.40
2022-08-11T20:51:22.980Z,24.40
2022-08-11T20:53:46.251Z,24.30
2022-08-11T20:56:08.464Z,24.20
2022-08-11T20:59:01.048Z,24.00
2022-08-11T21:00:58.818Z,24.00
2022-08-11T21:03:35.521Z,23.90
2022-08-11T21:06:10.031Z,23.80
2022-08-11T21:08:13.283Z,23.80
2022-08-11T21:10:33.849Z,23.70
2022-08-11T21:12:57.759Z,23.60
2022-08-11T21:15:47.080Z,23.50
2022-08-11T21:18:00.624Z,23.40
2022-08-11T21:22:35.549Z,23.20
2022-08-11T21:24:57.941Z,23.00
2022-08-11T21:27:23.868Z,22.70
2022-08-11T21:29:45.023Z,22.50
2022-08-11T21:32:07.779Z,22.20
2022-08-11T21:34:30.425Z,22.00
2022-08-11T21:36:52.223Z,21.90
2022-08-11T21:39:14.432Z,21.90
2022-08-11T21:41:37.480Z,21.90
2022-08-11T21:44:01.848Z,21.90
2022-08-11T21:46:38.105Z,21.90
2022-08-11T21:49:01.754Z,21.90
2022-08-11T21:51:33.530Z,21.80
2022-08-11T21:53:56.874Z,21.60
2022-08-11T21:58:48.053Z,21.20
2022-08-11T22:01:10.156Z,21.10
2022-08-11T22:03:36.541Z,21.10
2022-08-11T22:05:57.858Z,21.10
2022-08-11T22:08:20.464Z,21.10
2022-08-11T22:10:43.391Z,21.10
2022-08-11T22:13:06.011Z,21.00
2022-08-11T22:15:28.773Z,20.90
2022-08-11T22:17:52.656Z,20.90
2022-08-11T22:20:15.153Z,20.90
2022-08-11T22:22:52.087Z,20.90
2022-08-11T22:25:01.104Z,20.90
2022-08-11T22:29:51.283Z,20.90
2022-08-11T22:32:04.616Z,20.90
2022-08-11T22:34:27.256Z,20.80
2022-08-11T22:36:51.570Z,20.70
2022-08-11T22:39:16.284Z,20.60
2022-08-11T22:41:38.920Z,20.50
2022-08-11T22:44:01.216Z,20.50
2022-08-11T22:46:23.008Z,20.30
2022-08-11T22:48:45.300Z,20.30
2022-08-11T22:51:06.995Z,20.30
2022-08-11T22:53:28.685Z,20.20
2022-08-11T22:55:52.509Z,20.20
2022-08-11T22:58:14.692Z,20.30
2022-08-11T23:00:36.483Z,20.20
2022-08-11T23:02:58.640Z,20.20
2022-08-11T23:05:20.339Z,20.10
2022-08-11T23:07:51.287Z,20.00
2022-08-11T23:10:06.484Z,20.00
2022-08-11T23:12:29.869Z,19.90
2022-08-11T23:14:53.053Z,19.90
2022-08-11T23:17:15.162Z,19.90
2022-08-11T23:20:09.651Z,19.80
2022-08-11T23:22:00.539Z,19.70
2022-08-11T23:26:40.492Z,19.60
2022-08-11T23:29:05.355Z,19.70
2022-08-11T23:31:27.663Z,19.60
2022-08-11T23:33:54.545Z,19.50
2022-08-11T23:36:36.272Z,19.50
2022-08-11T23:38:39.137Z,19.50
2022-08-11T23:41:01.505Z,19.50
2022-08-11T23:43:23.508Z,19.40
2022-08-11T23:45:45.408Z,19.40
2022-08-11T23:48:09.407Z,19.30
2022-08-11T23:52:46.798Z,19.20
2022-08-11T23:55:08.712Z,19.10
2022-08-11T23:57:30.564Z,19.00
2022-08-11T23:59:52.940Z,18.80
